sensor_id;sensor_type;location;lat;lon;timestamp;P1;durP1;ratioP1;P2;durP2;ratioP2
60710;SDS011;46554;48.138;8.420;2024-03-02T00:02:00;5.57;;;2.47;;
60710;SDS011;46554;48.138;8.420;2024-03-02T00:04:32;5.72;;;3.20;;
60710;SDS011;46554;48.138;8.420;2024-03-02T00:07:03;4.13;;;2.00;;
60710;SDS011;46554;48.138;8.420;2024-03-02T00:09:29;2.13;;;1.92;;
60710;SDS011;46554;48.138;8.420;2024-03-02T00:12:04;6.22;;;3.45;;
60710;SDS011;46554;48.138;8.420;2024-03-02T00:14:41;5.32;;;2.40;;
60710;SDS011;46554;48.138;8.420;2024-03-02T00:17:16;3.35;;;2.33;;
60710;SDS011;46554;48.138;8.420;2024-03-02T00:19:46;6.25;;;2.25;;
60710;SDS011;46554;48.138;8.420;2024-03-02T00:22:19;2.13;;;1.98;;
60710;SDS011;46554;48.138;8.420;2024-03-02T00:25:38;7.93;;;3.25;;
60710;SDS011;46554;48.138;8.420;2024-03-02T00:28:35;4.30;;;3.10;;
60710;SDS011;46554;48.138;8.420;2024-03-02T00:31:12;3.00;;;2.53;;
60710;SDS011;46554;48.138;8.420;2024-03-02T00:33:53;4.03;;;3.38;;
60710;SDS011;46554;48.138;8.420;2024-03-02T00:36:29;3.72;;;3.25;;
60710;SDS011;46554;48.138;8.420;2024-03-02T00:39:02;5.75;;;2.70;;
60710;SDS011;46554;48.138;8.420;2024-03-02T00:41:37;4.35;;;3.97;;
60710;SDS011;46554;48.138;8.420;2024-03-02T00:47:37;7.88;;;3.47;;
60710;SDS011;46554;48.138;8.420;2024-03-02T00:50:14;3.00;;;2.70;;
60710;SDS011;46554;48.138;8.420;2024-03-02T00:52:51;2.83;;;2.55;;
60710;SDS011;46554;48.138;8.420;2024-03-02T00:55:17;3.30;;;2.95;;
60710;SDS011;46554;48.138;8.420;2024-03-02T00:57:51;6.32;;;3.45;;
60710;SDS011;46554;48.138;8.420;2024-03-02T01:00:23;4.45;;;2.58;;
60710;SDS011;46554;48.138;8.420;2024-03-02T01:02:57;3.58;;;3.03;;
60710;SDS011;46554;48.138;8.420;2024-03-02T01:05:42;2.15;;;1.92;;
60710;SDS011;46554;48.138;8.420;2024-03-02T01:08:15;10.82;;;3.78;;
60710;SDS011;46554;48.138;8.420;2024-03-02T01:11:16;4.13;;;2.83;;
60710;SDS011;46554;48.138;8.420;2024-03-02T01:13:57;1.27;;;1.23;;
60710;SDS011;46554;48.138;8.420;2024-03-02T01:16:38;3.47;;;2.15;;
60710;SDS011;46554;48.138;8.420;2024-03-02T01:22:25;3.90;;;2.30;;
60710;SDS011;46554;48.138;8.420;2024-03-02T01:24:59;7.13;;;2.38;;
60710;SDS011;46554;48.138;8.420;2024-03-02T01:27:33;2.30;;;1.52;;
60710;SDS011;46554;48.138;8.420;2024-03-02T01:30:09;3.65;;;3.05;;
60710;SDS011;46554;48.138;8.420;2024-03-02T01:32:42;3.25;;;1.90;;
60710;SDS011;46554;48.138;8.420;2024-03-02T01:35:16;2.45;;;2.22;;
60710;SDS011;46554;48.138;8.420;2024-03-02T01:41:06;1.52;;;1.45;;
60710;SDS011;46554;48.138;8.420;2024-03-02T01:43:40;3.35;;;1.48;;
60710;SDS011;46554;48.138;8.420;2024-03-02T01:46:14;1.70;;;1.60;;
60710;SDS011;46554;48.138;8.420;2024-03-02T01:48:46;3.60;;;2.90;;
60710;SDS011;46554;48.138;8.420;2024-03-02T01:51:20;2.60;;;2.40;;
60710;SDS011;46554;48.138;8.420;2024-03-02T01:53:53;2.78;;;1.73;;
60710;SDS011;46554;48.138;8.420;2024-03-02T01:56:25;2.42;;;1.88;;
60710;SDS011;46554;48.138;8.420;2024-03-02T01:58:59;2.22;;;1.75;;
60710;SDS011;46554;48.138;8.420;2024-03-02T02:01:34;2.17;;;1.65;;
60710;SDS011;46554;48.138;8.420;2024-03-02T02:04:08;1.90;;;1.38;;
60710;SDS011;46554;48.138;8.420;2024-03-02T02:10:00;1.33;;;1.23;;
60710;SDS011;46554;48.138;8.420;2024-03-02T02:16:28;2.20;;;1.35;;
60710;SDS011;46554;48.138;8.420;2024-03-02T02:19:01;4.63;;;3.03;;
60710;SDS011;46554;48.138;8.420;2024-03-02T02:21:38;2.95;;;2.08;;
60710;SDS011;46554;48.138;8.420;2024-03-02T02:31:44;3.72;;;2.40;;
60710;SDS011;46554;48.138;8.420;2024-03-02T02:34:30;1.65;;;1.55;;
60710;SDS011;46554;48.138;8.420;2024-03-02T02:40:49;1.55;;;1.55;;
60710;SDS011;46554;48.138;8.420;2024-03-02T02:47:06;2.97;;;2.65;;
60710;SDS011;46554;48.138;8.420;2024-03-02T02:49:38;2.95;;;2.75;;
60710;SDS011;46554;48.138;8.420;2024-03-02T02:52:31;1.08;;;1.08;;
60710;SDS011;46554;48.138;8.420;2024-03-02T02:55:21;2.90;;;1.73;;
60710;SDS011;46554;48.138;8.420;2024-03-02T02:57:58;2.05;;;1.95;;
60710;SDS011;46554;48.138;8.420;2024-03-02T03:00:32;1.73;;;1.63;;
60710;SDS011;46554;48.138;8.420;2024-03-02T03:03:10;2.17;;;2.00;;
60710;SDS011;46554;48.138;8.420;2024-03-02T03:05:42;15.90;;;3.17;;
60710;SDS011;46554;48.138;8.420;2024-03-02T03:08:15;1.75;;;1.65;;
60710;SDS011;46554;48.138;8.420;2024-03-02T03:14:19;1.60;;;1.50;;
60710;SDS011;46554;48.138;8.420;2024-03-02T03:23:58;2.00;;;1.90;;
60710;SDS011;46554;48.138;8.420;2024-03-02T03:26:45;1.95;;;1.85;;
60710;SDS011;46554;48.138;8.420;2024-03-02T03:29:17;2.40;;;2.20;;
60710;SDS011;46554;48.138;8.420;2024-03-02T03:32:44;1.63;;;1.52;;
60710;SDS011;46554;48.138;8.420;2024-03-02T03:46:23;0.88;;;0.88;;
60710;SDS011;46554;48.138;8.420;2024-03-02T03:49:22;1.30;;;1.20;;
60710;SDS011;46554;48.138;8.420;2024-03-02T03:55:47;1.10;;;1.08;;
60710;SDS011;46554;48.138;8.420;2024-03-02T03:58:42;2.85;;;1.73;;
60710;SDS011;46554;48.138;8.420;2024-03-02T04:05:10;1.40;;;1.30;;
60710;SDS011;46554;48.138;8.420;2024-03-02T04:08:12;1.48;;;1.38;;
60710;SDS011;46554;48.138;8.420;2024-03-02T04:18:16;4.20;;;1.60;;
60710;SDS011;46554;48.138;8.420;2024-03-02T04:24:57;2.30;;;0.77;;
60710;SDS011;46554;48.138;8.420;2024-03-02T04:28:20;1.35;;;1.20;;
60710;SDS011;46554;48.138;8.420;2024-03-02T04:41:04;1.63;;;1.52;;
60710;SDS011;46554;48.138;8.420;2024-03-02T04:51:06;6.07;;;1.90;;
60710;SDS011;46554;48.138;8.420;2024-03-02T05:01:36;4.57;;;2.83;;
60710;SDS011;46554;48.138;8.420;2024-03-02T05:15:26;1.48;;;1.38;;
60710;SDS011;46554;48.138;8.420;2024-03-02T05:35:52;1.75;;;1.50;;
60710;SDS011;46554;48.138;8.420;2024-03-02T05:38:47;2.78;;;2.35;;
60710;SDS011;46554;48.138;8.420;2024-03-02T05:45:42;4.53;;;1.33;;
60710;SDS011;46554;48.138;8.420;2024-03-02T06:18:31;1.80;;;1.70;;
60710;SDS011;46554;48.138;8.420;2024-03-02T06:25:13;3.17;;;1.75;;
60710;SDS011;46554;48.138;8.420;2024-03-02T06:27:50;2.58;;;2.38;;
60710;SDS011;46554;48.138;8.420;2024-03-02T06:30:31;3.22;;;2.20;;
60710;SDS011;46554;48.138;8.420;2024-03-02T06:34:08;3.63;;;3.33;;
60710;SDS011;46554;48.138;8.420;2024-03-02T06:36:42;2.70;;;2.50;;
60710;SDS011;46554;48.138;8.420;2024-03-02T06:52:57;8.48;;;4.95;;
60710;SDS011;46554;48.138;8.420;2024-03-02T06:59:09;4.10;;;3.20;;
60710;SDS011;46554;48.138;8.420;2024-03-02T07:01:41;6.88;;;4.65;;
60710;SDS011;46554;48.138;8.420;2024-03-02T07:04:50;3.53;;;3.22;;
60710;SDS011;46554;48.138;8.420;2024-03-02T07:11:12;11.52;;;6.57;;
60710;SDS011;46554;48.138;8.420;2024-03-02T07:13:55;3.88;;;3.58;;
60710;SDS011;46554;48.138;8.420;2024-03-02T07:16:27;10.15;;;3.95;;
60710;SDS011;46554;48.138;8.420;2024-03-02T07:25:59;6.40;;;5.93;;
60710;SDS011;46554;48.138;8.420;2024-03-02T07:28:38;6.28;;;5.63;;
60710;SDS011;46554;48.138;8.420;2024-03-02T07:34:31;6.90;;;5.70;;
60710;SDS011;46554;48.138;8.420;2024-03-02T08:01:57;6.03;;;4.80;;
60710;SDS011;46554;48.138;8.420;2024-03-02T08:05:11;4.72;;;4.30;;
60710;SDS011;46554;48.138;8.420;2024-03-02T08:07:50;6.70;;;3.28;;
60710;SDS011;46554;48.138;8.420;2024-03-02T08:11:05;9.18;;;3.70;;
60710;SDS011;46554;48.138;8.420;2024-03-02T08:13:37;3.13;;;2.30;;
60710;SDS011;46554;48.138;8.420;2024-03-02T08:19:48;6.78;;;3.53;;
60710;SDS011;46554;48.138;8.420;2024-03-02T08:23:06;3.90;;;3.65;;
60710;SDS011;46554;48.138;8.420;2024-03-02T08:29:12;5.68;;;3.88;;
60710;SDS011;46554;48.138;8.420;2024-03-02T08:31:43;4.22;;;3.72;;
60710;SDS011;46554;48.138;8.420;2024-03-02T08:34:26;6.20;;;2.63;;
60710;SDS011;46554;48.138;8.420;2024-03-02T08:41:19;6.30;;;3.10;;
60710;SDS011;46554;48.138;8.420;2024-03-02T08:43:48;4.40;;;3.58;;
60710;SDS011;46554;48.138;8.420;2024-03-02T08:46:21;2.92;;;2.72;;
60710;SDS011;46554;48.138;8.420;2024-03-02T08:48:55;3.45;;;3.15;;
60710;SDS011;46554;48.138;8.420;2024-03-02T08:51:27;3.67;;;2.42;;
60710;SDS011;46554;48.138;8.420;2024-03-02T08:54:05;6.15;;;2.90;;
60710;SDS011;46554;48.138;8.420;2024-03-02T09:02:43;3.22;;;2.22;;
60710;SDS011;46554;48.138;8.420;2024-03-02T09:05:54;5.07;;;3.13;;
60710;SDS011;46554;48.138;8.420;2024-03-02T09:08:27;6.50;;;2.80;;
60710;SDS011;46554;48.138;8.420;2024-03-02T09:10:56;4.75;;;4.35;;
60710;SDS011;46554;48.138;8.420;2024-03-02T09:16:55;4.07;;;3.78;;
60710;SDS011;46554;48.138;8.420;2024-03-02T09:19:28;7.35;;;6.72;;
60710;SDS011;46554;48.138;8.420;2024-03-02T09:22:03;5.25;;;4.70;;
60710;SDS011;46554;48.138;8.420;2024-03-02T09:24:41;9.65;;;3.85;;
60710;SDS011;46554;48.138;8.420;2024-03-02T09:27:07;4.63;;;3.53;;
60710;SDS011;46554;48.138;8.420;2024-03-02T09:29:44;7.32;;;6.70;;
60710;SDS011;46554;48.138;8.420;2024-03-02T09:32:20;8.40;;;3.97;;
60710;SDS011;46554;48.138;8.420;2024-03-02T09:34:49;4.40;;;3.92;;
60710;SDS011;46554;48.138;8.420;2024-03-02T09:37:20;6.97;;;6.38;;
60710;SDS011;46554;48.138;8.420;2024-03-02T09:39:52;3.72;;;3.35;;
60710;SDS011;46554;48.138;8.420;2024-03-02T09:42:23;5.95;;;5.45;;
60710;SDS011;46554;48.138;8.420;2024-03-02T09:44:52;5.13;;;4.78;;
60710;SDS011;46554;48.138;8.420;2024-03-02T09:47:18;8.68;;;2.72;;
60710;SDS011;46554;48.138;8.420;2024-03-02T09:49:43;2.65;;;2.15;;
60710;SDS011;46554;48.138;8.420;2024-03-02T09:52:09;3.13;;;2.50;;
60710;SDS011;46554;48.138;8.420;2024-03-02T09:54:35;3.03;;;2.47;;
60710;SDS011;46554;48.138;8.420;2024-03-02T09:57:01;5.63;;;3.45;;
60710;SDS011;46554;48.138;8.420;2024-03-02T09:59:27;4.47;;;3.33;;
60710;SDS011;46554;48.138;8.420;2024-03-02T10:04:33;14.48;;;3.47;;
60710;SDS011;46554;48.138;8.420;2024-03-02T10:07:19;3.85;;;2.80;;
60710;SDS011;46554;48.138;8.420;2024-03-02T10:09:47;2.03;;;1.92;;
60710;SDS011;46554;48.138;8.420;2024-03-02T10:12:14;1.40;;;1.30;;
60710;SDS011;46554;48.138;8.420;2024-03-02T10:14:41;1.92;;;1.83;;
60710;SDS011;46554;48.138;8.420;2024-03-02T10:17:08;3.13;;;2.67;;
60710;SDS011;46554;48.138;8.420;2024-03-02T10:19:34;4.13;;;3.72;;
60710;SDS011;46554;48.138;8.420;2024-03-02T10:22:02;3.70;;;3.10;;
60710;SDS011;46554;48.138;8.420;2024-03-02T10:24:34;1.75;;;1.65;;
60710;SDS011;46554;48.138;8.420;2024-03-02T10:29:40;4.47;;;1.90;;
60710;SDS011;46554;48.138;8.420;2024-03-02T10:32:08;2.15;;;1.90;;
60710;SDS011;46554;48.138;8.420;2024-03-02T10:34:35;3.97;;;2.75;;
60710;SDS011;46554;48.138;8.420;2024-03-02T10:37:03;4.57;;;2.88;;
60710;SDS011;46554;48.138;8.420;2024-03-02T10:39:31;3.60;;;2.92;;
60710;SDS011;46554;48.138;8.420;2024-03-02T10:41:56;2.63;;;2.40;;
60710;SDS011;46554;48.138;8.420;2024-03-02T10:44:22;2.60;;;2.15;;
60710;SDS011;46554;48.138;8.420;2024-03-02T10:46:49;2.65;;;1.67;;
60710;SDS011;46554;48.138;8.420;2024-03-02T10:49:14;3.55;;;2.28;;
60710;SDS011;46554;48.138;8.420;2024-03-02T10:51:40;3.92;;;2.25;;
60710;SDS011;46554;48.138;8.420;2024-03-02T10:54:05;3.08;;;2.50;;
60710;SDS011;46554;48.138;8.420;2024-03-02T11:01:31;6.18;;;2.92;;
60710;SDS011;46554;48.138;8.420;2024-03-02T11:03:57;3.42;;;2.65;;
60710;SDS011;46554;48.138;8.420;2024-03-02T11:06:26;2.78;;;2.58;;
60710;SDS011;46554;48.138;8.420;2024-03-02T11:08:53;2.67;;;2.47;;
60710;SDS011;46554;48.138;8.420;2024-03-02T11:11:27;6.03;;;5.20;;
60710;SDS011;46554;48.138;8.420;2024-03-02T11:16:27;3.25;;;2.60;;
60710;SDS011;46554;48.138;8.420;2024-03-02T11:19:00;3.00;;;2.47;;
60710;SDS011;46554;48.138;8.420;2024-03-02T11:21:29;3.58;;;3.28;;
60710;SDS011;46554;48.138;8.420;2024-03-02T11:23:54;7.00;;;3.13;;
60710;SDS011;46554;48.138;8.420;2024-03-02T11:26:22;4.50;;;3.13;;
60710;SDS011;46554;48.138;8.420;2024-03-02T11:28:49;3.20;;;3.00;;
60710;SDS011;46554;48.138;8.420;2024-03-02T11:31:14;2.55;;;2.25;;
60710;SDS011;46554;48.138;8.420;2024-03-02T11:33:40;7.72;;;7.10;;
60710;SDS011;46554;48.138;8.420;2024-03-02T11:36:09;4.13;;;3.92;;
60710;SDS011;46554;48.138;8.420;2024-03-02T11:38:34;4.43;;;4.22;;
60710;SDS011;46554;48.138;8.420;2024-03-02T11:41:01;7.53;;;6.85;;
60710;SDS011;46554;48.138;8.420;2024-03-02T11:43:28;8.48;;;7.97;;
60710;SDS011;46554;48.138;8.420;2024-03-02T11:45:58;6.43;;;6.03;;
60710;SDS011;46554;48.138;8.420;2024-03-02T11:48:29;5.72;;;5.32;;
60710;SDS011;46554;48.138;8.420;2024-03-02T11:50:54;6.38;;;6.10;;
60710;SDS011;46554;48.138;8.420;2024-03-02T11:53:23;7.32;;;6.93;;
60710;SDS011;46554;48.138;8.420;2024-03-02T11:55:48;8.10;;;7.65;;
60710;SDS011;46554;48.138;8.420;2024-03-02T11:58:17;7.15;;;6.68;;
60710;SDS011;46554;48.138;8.420;2024-03-02T12:00:43;5.97;;;4.43;;
60710;SDS011;46554;48.138;8.420;2024-03-02T12:03:09;3.33;;;3.05;;
60710;SDS011;46554;48.138;8.420;2024-03-02T12:05:35;2.90;;;2.80;;
60710;SDS011;46554;48.138;8.420;2024-03-02T12:08:02;2.72;;;2.47;;
60710;SDS011;46554;48.138;8.420;2024-03-02T12:10:32;4.30;;;2.50;;
60710;SDS011;46554;48.138;8.420;2024-03-02T12:15:27;3.10;;;2.35;;
60710;SDS011;46554;48.138;8.420;2024-03-02T12:17:55;3.30;;;1.98;;
60710;SDS011;46554;48.138;8.420;2024-03-02T12:20:21;2.10;;;1.90;;
60710;SDS011;46554;48.138;8.420;2024-03-02T12:22:48;1.42;;;1.40;;
60710;SDS011;46554;48.138;8.420;2024-03-02T12:25:16;1.95;;;1.80;;
60710;SDS011;46554;48.138;8.420;2024-03-02T12:27:42;1.90;;;1.80;;
60710;SDS011;46554;48.138;8.420;2024-03-02T12:30:08;2.40;;;1.90;;
60710;SDS011;46554;48.138;8.420;2024-03-02T12:32:35;1.83;;;1.73;;
60710;SDS011;46554;48.138;8.420;2024-03-02T12:35:03;1.98;;;1.67;;
60710;SDS011;46554;48.138;8.420;2024-03-02T12:37:30;4.78;;;2.38;;
60710;SDS011;46554;48.138;8.420;2024-03-02T12:39:55;3.70;;;1.88;;
60710;SDS011;46554;48.138;8.420;2024-03-02T12:42:21;2.13;;;1.52;;
60710;SDS011;46554;48.138;8.420;2024-03-02T12:44:46;8.13;;;1.70;;
60710;SDS011;46554;48.138;8.420;2024-03-02T12:47:12;1.75;;;1.65;;
60710;SDS011;46554;48.138;8.420;2024-03-02T12:49:39;2.53;;;2.25;;
60710;SDS011;46554;48.138;8.420;2024-03-02T12:52:05;4.00;;;2.80;;
60710;SDS011;46554;48.138;8.420;2024-03-02T12:54:30;2.65;;;2.13;;
60710;SDS011;46554;48.138;8.420;2024-03-02T12:56:56;2.50;;;1.80;;
60710;SDS011;46554;48.138;8.420;2024-03-02T12:59:23;1.85;;;1.75;;
60710;SDS011;46554;48.138;8.420;2024-03-02T13:01:54;2.42;;;1.85;;
60710;SDS011;46554;48.138;8.420;2024-03-02T13:04:26;2.15;;;2.05;;
60710;SDS011;46554;48.138;8.420;2024-03-02T13:06:53;2.88;;;2.22;;
60710;SDS011;46554;48.138;8.420;2024-03-02T13:09:18;2.90;;;2.70;;
60710;SDS011;46554;48.138;8.420;2024-03-02T13:11:44;2.33;;;2.08;;
60710;SDS011;46554;48.138;8.420;2024-03-02T13:14:11;1.85;;;1.75;;
60710;SDS011;46554;48.138;8.420;2024-03-02T13:16:40;4.55;;;2.10;;
60710;SDS011;46554;48.138;8.420;2024-03-02T13:19:13;1.90;;;1.80;;
60710;SDS011;46554;48.138;8.420;2024-03-02T13:21:39;2.20;;;1.52;;
60710;SDS011;46554;48.138;8.420;2024-03-02T13:24:04;1.83;;;1.73;;
60710;SDS011;46554;48.138;8.420;2024-03-02T13:26:33;1.35;;;1.30;;
60710;SDS011;46554;48.138;8.420;2024-03-02T13:28:59;4.78;;;2.08;;
60710;SDS011;46554;48.138;8.420;2024-03-02T13:31:24;2.63;;;1.80;;
60710;SDS011;46554;48.138;8.420;2024-03-02T13:33:50;2.38;;;1.88;;
60710;SDS011;46554;48.138;8.420;2024-03-02T13:36:18;1.75;;;1.35;;
60710;SDS011;46554;48.138;8.420;2024-03-02T13:38:46;1.17;;;1.17;;
60710;SDS011;46554;48.138;8.420;2024-03-02T13:41:12;2.13;;;1.60;;
60710;SDS011;46554;48.138;8.420;2024-03-02T13:43:37;1.02;;;0.93;;
60710;SDS011;46554;48.138;8.420;2024-03-02T13:46:04;4.18;;;1.88;;
60710;SDS011;46554;48.138;8.420;2024-03-02T13:48:31;2.83;;;1.77;;
60710;SDS011;46554;48.138;8.420;2024-03-02T13:50:57;2.33;;;1.80;;
60710;SDS011;46554;48.138;8.420;2024-03-02T13:53:22;1.52;;;1.42;;
60710;SDS011;46554;48.138;8.420;2024-03-02T13:55:48;1.25;;;1.15;;
60710;SDS011;46554;48.138;8.420;2024-03-02T13:58:13;1.25;;;1.25;;
60710;SDS011;46554;48.138;8.420;2024-03-02T14:00:39;2.33;;;1.73;;
60710;SDS011;46554;48.138;8.420;2024-03-02T14:03:07;1.27;;;1.17;;
60710;SDS011;46554;48.138;8.420;2024-03-02T14:08:01;1.38;;;1.13;;
60710;SDS011;46554;48.138;8.420;2024-03-02T14:10:27;0.70;;;0.70;;
60710;SDS011;46554;48.138;8.420;2024-03-02T14:12:54;2.38;;;1.15;;
60710;SDS011;46554;48.138;8.420;2024-03-02T14:15:20;0.98;;;0.98;;
60710;SDS011;46554;48.138;8.420;2024-03-02T14:17:48;1.45;;;1.20;;
60710;SDS011;46554;48.138;8.420;2024-03-02T14:20:14;1.35;;;1.25;;
60710;SDS011;46554;48.138;8.420;2024-03-02T14:22:39;1.52;;;1.38;;
60710;SDS011;46554;48.138;8.420;2024-03-02T14:25:05;0.88;;;0.88;;
60710;SDS011;46554;48.138;8.420;2024-03-02T14:27:30;1.20;;;1.17;;
60710;SDS011;46554;48.138;8.420;2024-03-02T14:29:56;1.65;;;1.10;;
60710;SDS011;46554;48.138;8.420;2024-03-02T14:32:26;1.30;;;1.20;;
60710;SDS011;46554;48.138;8.420;2024-03-02T14:34:51;1.35;;;1.25;;
60710;SDS011;46554;48.138;8.420;2024-03-02T14:37:16;2.28;;;2.13;;
60710;SDS011;46554;48.138;8.420;2024-03-02T14:39:42;1.70;;;1.60;;
60710;SDS011;46554;48.138;8.420;2024-03-02T14:42:07;1.50;;;1.50;;
60710;SDS011;46554;48.138;8.420;2024-03-02T14:44:33;1.75;;;1.70;;
60710;SDS011;46554;48.138;8.420;2024-03-02T14:46:59;1.75;;;1.65;;
60710;SDS011;46554;48.138;8.420;2024-03-02T14:49:26;1.92;;;1.83;;
60710;SDS011;46554;48.138;8.420;2024-03-02T14:51:51;2.47;;;2.38;;
60710;SDS011;46554;48.138;8.420;2024-03-02T14:54:17;1.95;;;1.25;;
60710;SDS011;46554;48.138;8.420;2024-03-02T14:56:42;2.17;;;2.08;;
60710;SDS011;46554;48.138;8.420;2024-03-02T14:59:08;1.10;;;1.10;;
60710;SDS011;46554;48.138;8.420;2024-03-02T15:01:33;1.20;;;1.20;;
60710;SDS011;46554;48.138;8.420;2024-03-02T15:03:58;4.88;;;1.33;;
60710;SDS011;46554;48.138;8.420;2024-03-02T15:06:24;0.80;;;0.80;;
60710;SDS011;46554;48.138;8.420;2024-03-02T15:08:49;1.67;;;1.20;;
60710;SDS011;46554;48.138;8.420;2024-03-02T15:11:15;2.38;;;1.10;;
60710;SDS011;46554;48.138;8.420;2024-03-02T15:13:41;0.90;;;0.90;;
60710;SDS011;46554;48.138;8.420;2024-03-02T15:16:06;0.93;;;0.93;;
60710;SDS011;46554;48.138;8.420;2024-03-02T15:18:32;1.33;;;1.15;;
60710;SDS011;46554;48.138;8.420;2024-03-02T15:20:57;1.10;;;1.00;;
60710;SDS011;46554;48.138;8.420;2024-03-02T15:23:28;2.13;;;1.77;;
60710;SDS011;46554;48.138;8.420;2024-03-02T15:25:54;2.45;;;2.35;;
60710;SDS011;46554;48.138;8.420;2024-03-02T15:28:20;0.80;;;0.80;;
60710;SDS011;46554;48.138;8.420;2024-03-02T15:30:45;2.53;;;0.80;;
60710;SDS011;46554;48.138;8.420;2024-03-02T15:33:11;1.10;;;1.10;;
60710;SDS011;46554;48.138;8.420;2024-03-02T15:35:38;0.85;;;0.85;;
60710;SDS011;46554;48.138;8.420;2024-03-02T15:38:04;1.13;;;1.13;;
60710;SDS011;46554;48.138;8.420;2024-03-02T15:40:29;0.95;;;0.90;;
60710;SDS011;46554;48.138;8.420;2024-03-02T15:42:54;0.90;;;0.90;;
60710;SDS011;46554;48.138;8.420;2024-03-02T15:45:20;0.88;;;0.88;;
60710;SDS011;46554;48.138;8.420;2024-03-02T15:47:45;0.88;;;0.88;;
60710;SDS011;46554;48.138;8.420;2024-03-02T15:50:11;1.00;;;1.00;;
60710;SDS011;46554;48.138;8.420;2024-03-02T15:52:40;8.88;;;1.20;;
60710;SDS011;46554;48.138;8.420;2024-03-02T15:55:05;1.83;;;1.83;;
60710;SDS011;46554;48.138;8.420;2024-03-02T15:57:31;2.13;;;2.03;;
60710;SDS011;46554;48.138;8.420;2024-03-02T15:59:59;0.90;;;0.90;;
60710;SDS011;46554;48.138;8.420;2024-03-02T16:02:24;0.60;;;0.60;;
60710;SDS011;46554;48.138;8.420;2024-03-02T16:04:52;2.25;;;2.03;;
60710;SDS011;46554;48.138;8.420;2024-03-02T16:07:20;2.50;;;2.30;;
60710;SDS011;46554;48.138;8.420;2024-03-02T16:09:47;6.05;;;5.60;;
60710;SDS011;46554;48.138;8.420;2024-03-02T16:12:15;1.70;;;1.60;;
60710;SDS011;46554;48.138;8.420;2024-03-02T16:14:40;1.25;;;1.25;;
60710;SDS011;46554;48.138;8.420;2024-03-02T16:17:06;1.35;;;1.35;;
60710;SDS011;46554;48.138;8.420;2024-03-02T16:19:34;2.00;;;1.85;;
60710;SDS011;46554;48.138;8.420;2024-03-02T16:22:02;1.52;;;1.42;;
60710;SDS011;46554;48.138;8.420;2024-03-02T16:24:28;1.48;;;1.48;;
60710;SDS011;46554;48.138;8.420;2024-03-02T16:26:56;1.60;;;1.50;;
60710;SDS011;46554;48.138;8.420;2024-03-02T16:29:24;2.15;;;1.95;;
60710;SDS011;46554;48.138;8.420;2024-03-02T16:31:49;1.90;;;1.80;;
60710;SDS011;46554;48.138;8.420;2024-03-02T16:34:14;2.80;;;2.22;;
60710;SDS011;46554;48.138;8.420;2024-03-02T16:36:42;1.85;;;1.73;;
60710;SDS011;46554;48.138;8.420;2024-03-02T16:39:10;3.30;;;2.35;;
60710;SDS011;46554;48.138;8.420;2024-03-02T16:41:38;2.88;;;2.38;;
60710;SDS011;46554;48.138;8.420;2024-03-02T16:44:13;2.97;;;1.77;;
60710;SDS011;46554;48.138;8.420;2024-03-02T16:46:41;2.72;;;1.65;;
60710;SDS011;46554;48.138;8.420;2024-03-02T16:49:10;2.33;;;1.80;;
60710;SDS011;46554;48.138;8.420;2024-03-02T16:51:39;1.73;;;1.63;;
60710;SDS011;46554;48.138;8.420;2024-03-02T16:54:07;4.65;;;1.50;;
60710;SDS011;46554;48.138;8.420;2024-03-02T16:56:38;3.92;;;1.70;;
60710;SDS011;46554;48.138;8.420;2024-03-02T16:59:04;3.20;;;1.75;;
60710;SDS011;46554;48.138;8.420;2024-03-02T17:01:30;9.75;;;1.75;;
60710;SDS011;46554;48.138;8.420;2024-03-02T17:03:55;3.70;;;2.05;;
60710;SDS011;46554;48.138;8.420;2024-03-02T17:06:20;1.85;;;1.30;;
60710;SDS011;46554;48.138;8.420;2024-03-02T17:08:51;1.17;;;1.17;;
60710;SDS011;46554;48.138;8.420;2024-03-02T17:11:16;1.90;;;1.30;;
60710;SDS011;46554;48.138;8.420;2024-03-02T17:13:41;2.65;;;1.60;;
60710;SDS011;46554;48.138;8.420;2024-03-02T17:16:07;2.63;;;1.08;;
60710;SDS011;46554;48.138;8.420;2024-03-02T17:18:32;1.30;;;1.20;;
60710;SDS011;46554;48.138;8.420;2024-03-02T17:20:58;2.05;;;1.20;;
60710;SDS011;46554;48.138;8.420;2024-03-02T17:23:23;2.58;;;1.30;;
60710;SDS011;46554;48.138;8.420;2024-03-02T17:25:48;1.45;;;1.17;;
60710;SDS011;46554;48.138;8.420;2024-03-02T17:28:18;5.70;;;1.70;;
60710;SDS011;46554;48.138;8.420;2024-03-02T17:30:44;1.70;;;1.65;;
60710;SDS011;46554;48.138;8.420;2024-03-02T17:33:09;4.78;;;1.55;;
60710;SDS011;46554;48.138;8.420;2024-03-02T17:35:35;1.23;;;1.23;;
60710;SDS011;46554;48.138;8.420;2024-03-02T17:38:01;1.75;;;1.75;;
60710;SDS011;46554;48.138;8.420;2024-03-02T17:40:26;2.08;;;1.52;;
60710;SDS011;46554;48.138;8.420;2024-03-02T17:42:54;1.73;;;1.60;;
60710;SDS011;46554;48.138;8.420;2024-03-02T17:45:19;3.47;;;2.80;;
60710;SDS011;46554;48.138;8.420;2024-03-02T17:47:44;2.08;;;2.03;;
60710;SDS011;46554;48.138;8.420;2024-03-02T17:50:10;3.28;;;3.08;;
60710;SDS011;46554;48.138;8.420;2024-03-02T17:52:37;2.10;;;2.00;;
60710;SDS011;46554;48.138;8.420;2024-03-02T17:55:03;1.27;;;1.27;;
60710;SDS011;46554;48.138;8.420;2024-03-02T17:57:28;1.50;;;1.30;;
60710;SDS011;46554;48.138;8.420;2024-03-02T17:59:54;1.05;;;1.05;;
60710;SDS011;46554;48.138;8.420;2024-03-02T18:02:20;5.00;;;3.85;;
60710;SDS011;46554;48.138;8.420;2024-03-02T18:04:46;7.53;;;3.50;;
60710;SDS011;46554;48.138;8.420;2024-03-02T18:07:11;10.38;;;6.07;;
60710;SDS011;46554;48.138;8.420;2024-03-02T18:09:37;4.85;;;4.38;;
60710;SDS011;46554;48.138;8.420;2024-03-02T18:12:02;3.40;;;3.15;;
60710;SDS011;46554;48.138;8.420;2024-03-02T18:14:29;3.45;;;2.53;;
60710;SDS011;46554;48.138;8.420;2024-03-02T18:16:56;2.20;;;2.00;;
60710;SDS011;46554;48.138;8.420;2024-03-02T18:19:22;3.95;;;2.75;;
60710;SDS011;46554;48.138;8.420;2024-03-02T18:21:48;4.72;;;3.33;;
60710;SDS011;46554;48.138;8.420;2024-03-02T18:24:14;6.60;;;3.03;;
60710;SDS011;46554;48.138;8.420;2024-03-02T18:26:39;2.28;;;1.98;;
60710;SDS011;46554;48.138;8.420;2024-03-02T18:29:07;5.00;;;2.70;;
60710;SDS011;46554;48.138;8.420;2024-03-02T18:31:33;2.03;;;1.73;;
60710;SDS011;46554;48.138;8.420;2024-03-02T18:33:59;1.83;;;1.65;;
60710;SDS011;46554;48.138;8.420;2024-03-02T18:36:30;1.83;;;1.70;;
60710;SDS011;46554;48.138;8.420;2024-03-02T18:38:56;3.58;;;2.33;;
60710;SDS011;46554;48.138;8.420;2024-03-02T18:41:21;8.48;;;7.68;;
60710;SDS011;46554;48.138;8.420;2024-03-02T18:43:46;2.70;;;2.50;;
60710;SDS011;46554;48.138;8.420;2024-03-02T18:46:12;2.95;;;2.65;;
60710;SDS011;46554;48.138;8.420;2024-03-02T18:48:37;7.20;;;2.53;;
60710;SDS011;46554;48.138;8.420;2024-03-02T18:51:07;2.47;;;2.38;;
60710;SDS011;46554;48.138;8.420;2024-03-02T18:53:34;8.43;;;2.03;;
60710;SDS011;46554;48.138;8.420;2024-03-02T18:56:00;1.35;;;1.35;;
60710;SDS011;46554;48.138;8.420;2024-03-02T18:58:25;13.40;;;2.10;;
60710;SDS011;46554;48.138;8.420;2024-03-02T19:00:51;1.90;;;1.80;;
60710;SDS011;46554;48.138;8.420;2024-03-02T19:03:17;1.95;;;1.50;;
60710;SDS011;46554;48.138;8.420;2024-03-02T19:05:42;1.60;;;1.40;;
60710;SDS011;46554;48.138;8.420;2024-03-02T19:08:08;3.70;;;2.25;;
60710;SDS011;46554;48.138;8.420;2024-03-02T19:10:38;1.80;;;1.63;;
60710;SDS011;46554;48.138;8.420;2024-03-02T19:13:03;2.45;;;1.80;;
60710;SDS011;46554;48.138;8.420;2024-03-02T19:15:30;3.35;;;2.05;;
60710;SDS011;46554;48.138;8.420;2024-03-02T19:17:58;1.92;;;1.83;;
60710;SDS011;46554;48.138;8.420;2024-03-02T19:20:23;1.83;;;1.73;;
60710;SDS011;46554;48.138;8.420;2024-03-02T19:22:49;3.33;;;2.67;;
60710;SDS011;46554;48.138;8.420;2024-03-02T19:25:15;2.83;;;2.72;;
60710;SDS011;46554;48.138;8.420;2024-03-02T19:27:41;2.78;;;2.55;;
60710;SDS011;46554;48.138;8.420;2024-03-02T19:30:06;3.08;;;2.58;;
60710;SDS011;46554;48.138;8.420;2024-03-02T19:32:33;3.67;;;2.60;;